sensor_id;sensor_type;location;lat;lon;timestamp;P1;durP1;ratioP1;P2;durP2;ratioP2
63312;SDS011;49442;45.640;13.812;2023-02-28T00:46:53;6.03;;;4.25;;
63312;SDS011;49442;45.640;13.812;2023-02-28T00:49:20;5.03;;;3.88;;
63312;SDS011;49442;45.640;13.812;2023-02-28T00:51:46;4.70;;;3.75;;
63312;SDS011;49442;45.640;13.812;2023-02-28T00:54:12;4.78;;;3.70;;
63312;SDS011;49442;45.640;13.812;2023-02-28T00:56:37;5.85;;;3.60;;
63312;SDS011;49442;45.640;13.812;2023-02-28T00:59:03;6.05;;;3.75;;
63312;SDS011;49442;45.640;13.812;2023-02-28T01:01:29;4.63;;;3.50;;
63312;SDS011;49442;45.640;13.812;2023-02-28T01:03:54;6.28;;;4.28;;
63312;SDS011;49442;45.640;13.812;2023-02-28T01:06:20;3.90;;;3.40;;
63312;SDS011;49442;45.640;13.812;2023-02-28T01:08:46;5.15;;;3.75;;
63312;SDS011;49442;45.640;13.812;2023-02-28T01:11:12;4.72;;;3.63;;
63312;SDS011;49442;45.640;13.812;2023-02-28T01:13:40;4.40;;;3.47;;
63312;SDS011;49442;45.640;13.812;2023-02-28T01:16:06;4.60;;;3.83;;
63312;SDS011;49442;45.640;13.812;2023-02-28T01:18:32;3.88;;;3.47;;
63312;SDS011;49442;45.640;13.812;2023-02-28T01:20:58;8.85;;;3.95;;
63312;SDS011;49442;45.640;13.812;2023-02-28T01:23:29;4.90;;;3.60;;
63312;SDS011;49442;45.640;13.812;2023-02-28T01:25:54;5.40;;;3.38;;
63312;SDS011;49442;45.640;13.812;2023-02-28T01:28:20;3.85;;;3.42;;
63312;SDS011;49442;45.640;13.812;2023-02-28T01:30:49;5.72;;;3.55;;
63312;SDS011;49442;45.640;13.812;2023-02-28T01:33:16;5.00;;;3.38;;
63312;SDS011;49442;45.640;13.812;2023-02-28T01:35:41;6.20;;;3.88;;
63312;SDS011;49442;45.640;13.812;2023-02-28T01:38:07;4.63;;;3.78;;
63312;SDS011;49442;45.640;13.812;2023-02-28T01:40:33;5.43;;;4.07;;
63312;SDS011;49442;45.640;13.812;2023-02-28T01:42:58;4.45;;;3.20;;
63312;SDS011;49442;45.640;13.812;2023-02-28T01:45:26;4.35;;;3.42;;
63312;SDS011;49442;45.640;13.812;2023-02-28T01:47:57;6.75;;;3.80;;
63312;SDS011;49442;45.640;13.812;2023-02-28T01:50:28;9.48;;;3.20;;
63312;SDS011;49442;45.640;13.812;2023-02-28T01:52:58;3.47;;;3.17;;
63312;SDS011;49442;45.640;13.812;2023-02-28T01:55:29;4.25;;;3.63;;
63312;SDS011;49442;45.640;13.812;2023-02-28T01:57:57;5.25;;;3.78;;
63312;SDS011;49442;45.640;13.812;2023-02-28T02:00:26;5.30;;;3.80;;
63312;SDS011;49442;45.640;13.812;2023-02-28T02:02:54;5.65;;;3.97;;
63312;SDS011;49442;45.640;13.812;2023-02-28T02:05:23;5.03;;;3.72;;
63312;SDS011;49442;45.640;13.812;2023-02-28T02:07:52;5.50;;;3.60;;
63312;SDS011;49442;45.640;13.812;2023-02-28T02:11:02;5.57;;;4.25;;
63312;SDS011;49442;45.640;13.812;2023-02-28T02:18:53;4.15;;;3.10;;
63312;SDS011;49442;45.640;13.812;2023-02-28T02:21:36;5.57;;;3.72;;
63312;SDS011;49442;45.640;13.812;2023-02-28T02:35:47;4.28;;;3.35;;
63312;SDS011;49442;45.640;13.812;2023-02-28T02:38:33;4.45;;;3.25;;
63312;SDS011;49442;45.640;13.812;2023-02-28T02:43:48;4.60;;;3.40;;
63312;SDS011;49442;45.640;13.812;2023-02-28T02:46:37;4.78;;;3.63;;
63312;SDS011;49442;45.640;13.812;2023-02-28T02:49:08;3.80;;;3.20;;
63312;SDS011;49442;45.640;13.812;2023-02-28T02:51:41;5.13;;;3.40;;
63312;SDS011;49442;45.640;13.812;2023-02-28T02:54:08;4.05;;;3.30;;
63312;SDS011;49442;45.640;13.812;2023-02-28T02:56:41;4.65;;;3.55;;
63312;SDS011;49442;45.640;13.812;2023-02-28T02:59:11;4.30;;;3.30;;
63312;SDS011;49442;45.640;13.812;2023-02-28T03:01:39;4.38;;;3.33;;
63312;SDS011;49442;45.640;13.812;2023-02-28T03:04:09;5.32;;;3.85;;
63312;SDS011;49442;45.640;13.812;2023-02-28T03:06:39;4.93;;;3.53;;
63312;SDS011;49442;45.640;13.812;2023-02-28T03:09:04;5.50;;;3.40;;
63312;SDS011;49442;45.640;13.812;2023-02-28T03:11:30;5.13;;;3.25;;
63312;SDS011;49442;45.640;13.812;2023-02-28T03:14:12;4.72;;;3.60;;
63312;SDS011;49442;45.640;13.812;2023-02-28T03:22:05;3.55;;;3.25;;
63312;SDS011;49442;45.640;13.812;2023-02-28T03:27:41;5.70;;;2.92;;
63312;SDS011;49442;45.640;13.812;2023-02-28T03:30:24;4.20;;;3.38;;
63312;SDS011;49442;45.640;13.812;2023-02-28T03:32:59;6.75;;;3.15;;
63312;SDS011;49442;45.640;13.812;2023-02-28T03:35:35;4.00;;;3.38;;
63312;SDS011;49442;45.640;13.812;2023-02-28T03:38:08;4.25;;;3.53;;
63312;SDS011;49442;45.640;13.812;2023-02-28T03:40:41;5.68;;;3.45;;
63312;SDS011;49442;45.640;13.812;2023-02-28T03:43:13;5.15;;;2.92;;
63312;SDS011;49442;45.640;13.812;2023-02-28T03:45:44;5.30;;;3.38;;
63312;SDS011;49442;45.640;13.812;2023-02-28T03:48:22;4.85;;;3.13;;
63312;SDS011;49442;45.640;13.812;2023-02-28T03:51:01;4.40;;;3.30;;
63312;SDS011;49442;45.640;13.812;2023-02-28T03:53:35;3.65;;;2.78;;
63312;SDS011;49442;45.640;13.812;2023-02-28T03:56:11;3.70;;;3.20;;
63312;SDS011;49442;45.640;13.812;2023-02-28T04:01:23;3.47;;;2.85;;
63312;SDS011;49442;45.640;13.812;2023-02-28T04:03:51;3.72;;;2.92;;
63312;SDS011;49442;45.640;13.812;2023-02-28T04:06:18;4.53;;;3.38;;
63312;SDS011;49442;45.640;13.812;2023-02-28T04:08:45;3.17;;;2.35;;
63312;SDS011;49442;45.640;13.812;2023-02-28T04:11:20;4.47;;;3.45;;
63312;SDS011;49442;45.640;13.812;2023-02-28T04:13:55;4.82;;;3.20;;
63312;SDS011;49442;45.640;13.812;2023-02-28T04:16:20;4.07;;;2.95;;
63312;SDS011;49442;45.640;13.812;2023-02-28T04:18:46;4.25;;;3.33;;
63312;SDS011;49442;45.640;13.812;2023-02-28T04:21:12;4.13;;;2.67;;
63312;SDS011;49442;45.640;13.812;2023-02-28T04:23:38;4.35;;;3.10;;
63312;SDS011;49442;45.640;13.812;2023-02-28T04:26:03;3.55;;;2.78;;
63312;SDS011;49442;45.640;13.812;2023-02-28T04:28:30;2.72;;;2.22;;
63312;SDS011;49442;45.640;13.812;2023-02-28T04:30:57;3.53;;;2.92;;
63312;SDS011;49442;45.640;13.812;2023-02-28T04:33:24;3.08;;;2.55;;
63312;SDS011;49442;45.640;13.812;2023-02-28T04:36:04;4.70;;;2.38;;
63312;SDS011;49442;45.640;13.812;2023-02-28T04:38:32;5.35;;;3.15;;
63312;SDS011;49442;45.640;13.812;2023-02-28T04:41:02;3.15;;;2.75;;
63312;SDS011;49442;45.640;13.812;2023-02-28T04:43:29;4.07;;;2.67;;
63312;SDS011;49442;45.640;13.812;2023-02-28T04:45:56;4.13;;;2.60;;
63312;SDS011;49442;45.640;13.812;2023-02-28T04:48:23;3.35;;;2.72;;
63312;SDS011;49442;45.640;13.812;2023-02-28T04:50:50;4.22;;;2.88;;
63312;SDS011;49442;45.640;13.812;2023-02-28T04:53:17;4.07;;;2.88;;
63312;SDS011;49442;45.640;13.812;2023-02-28T04:55:42;4.28;;;2.70;;
63312;SDS011;49442;45.640;13.812;2023-02-28T04:58:08;3.72;;;2.40;;
63312;SDS011;49442;45.640;13.812;2023-02-28T05:00:34;4.28;;;2.60;;
63312;SDS011;49442;45.640;13.812;2023-02-28T05:03:00;3.88;;;2.75;;
63312;SDS011;49442;45.640;13.812;2023-02-28T05:05:26;4.90;;;3.08;;
63312;SDS011;49442;45.640;13.812;2023-02-28T05:07:51;2.80;;;2.20;;
63312;SDS011;49442;45.640;13.812;2023-02-28T05:10:18;3.25;;;2.50;;
63312;SDS011;49442;45.640;13.812;2023-02-28T05:12:44;4.10;;;2.53;;
63312;SDS011;49442;45.640;13.812;2023-02-28T05:15:13;3.28;;;2.65;;
63312;SDS011;49442;45.640;13.812;2023-02-28T05:17:40;10.63;;;2.78;;
63312;SDS011;49442;45.640;13.812;2023-02-28T05:20:06;4.32;;;2.70;;
63312;SDS011;49442;45.640;13.812;2023-02-28T05:22:39;5.30;;;2.60;;
63312;SDS011;49442;45.640;13.812;2023-02-28T05:25:05;3.47;;;2.65;;
63312;SDS011;49442;45.640;13.812;2023-02-28T05:27:31;3.83;;;2.78;;
63312;SDS011;49442;45.640;13.812;2023-02-28T05:29:57;3.10;;;2.45;;
63312;SDS011;49442;45.640;13.812;2023-02-28T05:32:24;6.65;;;3.05;;
63312;SDS011;49442;45.640;13.812;2023-02-28T05:34:49;4.22;;;2.97;;
63312;SDS011;49442;45.640;13.812;2023-02-28T05:37:15;5.82;;;3.08;;
63312;SDS011;49442;45.640;13.812;2023-02-28T05:39:41;4.82;;;2.33;;
63312;SDS011;49442;45.640;13.812;2023-02-28T05:42:07;3.38;;;2.47;;
63312;SDS011;49442;45.640;13.812;2023-02-28T05:44:34;3.13;;;2.42;;
63312;SDS011;49442;45.640;13.812;2023-02-28T05:46:59;4.13;;;2.53;;
63312;SDS011;49442;45.640;13.812;2023-02-28T05:49:25;2.63;;;2.30;;
63312;SDS011;49442;45.640;13.812;2023-02-28T05:51:51;3.85;;;2.90;;
63312;SDS011;49442;45.640;13.812;2023-02-28T05:54:16;4.80;;;2.75;;
63312;SDS011;49442;45.640;13.812;2023-02-28T05:56:42;3.45;;;2.58;;
63312;SDS011;49442;45.640;13.812;2023-02-28T05:59:10;3.92;;;3.00;;
63312;SDS011;49442;45.640;13.812;2023-02-28T06:01:46;3.65;;;2.60;;
63312;SDS011;49442;45.640;13.812;2023-02-28T06:04:16;3.38;;;2.63;;
63312;SDS011;49442;45.640;13.812;2023-02-28T06:06:47;4.20;;;2.50;;
63312;SDS011;49442;45.640;13.812;2023-02-28T06:09:14;3.08;;;2.63;;
63312;SDS011;49442;45.640;13.812;2023-02-28T06:11:41;3.45;;;2.20;;
63312;SDS011;49442;45.640;13.812;2023-02-28T06:14:07;3.10;;;2.50;;
63312;SDS011;49442;45.640;13.812;2023-02-28T06:16:40;3.92;;;2.45;;
63312;SDS011;49442;45.640;13.812;2023-02-28T06:19:05;2.80;;;2.22;;
63312;SDS011;49442;45.640;13.812;2023-02-28T06:21:31;2.88;;;2.33;;
63312;SDS011;49442;45.640;13.812;2023-02-28T06:23:57;3.03;;;2.47;;
63312;SDS011;49442;45.640;13.812;2023-02-28T06:26:24;4.35;;;3.10;;
63312;SDS011;49442;45.640;13.812;2023-02-28T06:28:49;3.33;;;2.70;;
63312;SDS011;49442;45.640;13.812;2023-02-28T06:31:16;3.42;;;2.72;;
63312;SDS011;49442;45.640;13.812;2023-02-28T06:33:43;6.03;;;2.60;;
63312;SDS011;49442;45.640;13.812;2023-02-28T06:36:10;3.92;;;2.33;;
63312;SDS011;49442;45.640;13.812;2023-02-28T06:38:37;6.00;;;2.42;;
63312;SDS011;49442;45.640;13.812;2023-02-28T06:41:04;4.25;;;2.40;;
63312;SDS011;49442;45.640;13.812;2023-02-28T06:43:32;3.33;;;2.53;;
63312;SDS011;49442;45.640;13.812;2023-02-28T06:45:59;6.07;;;2.40;;
63312;SDS011;49442;45.640;13.812;2023-02-28T06:48:27;5.45;;;2.58;;
63312;SDS011;49442;45.640;13.812;2023-02-28T06:51:03;10.68;;;2.90;;
63312;SDS011;49442;45.640;13.812;2023-02-28T06:53:30;6.93;;;2.80;;
63312;SDS011;49442;45.640;13.812;2023-02-28T06:55:57;13.40;;;3.10;;
63312;SDS011;49442;45.640;13.812;2023-02-28T06:58:23;7.70;;;2.50;;
63312;SDS011;49442;45.640;13.812;2023-02-28T07:00:50;12.40;;;2.75;;
63312;SDS011;49442;45.640;13.812;2023-02-28T07:03:16;13.68;;;3.00;;
63312;SDS011;49442;45.640;13.812;2023-02-28T07:05:43;7.90;;;2.72;;
63312;SDS011;49442;45.640;13.812;2023-02-28T07:08:09;12.70;;;2.90;;
63312;SDS011;49442;45.640;13.812;2023-02-28T07:10:37;13.35;;;2.95;;
63312;SDS011;49442;45.640;13.812;2023-02-28T07:13:03;9.93;;;2.50;;
63312;SDS011;49442;45.640;13.812;2023-02-28T07:15:30;7.15;;;2.70;;
63312;SDS011;49442;45.640;13.812;2023-02-28T07:17:55;6.95;;;2.97;;
63312;SDS011;49442;45.640;13.812;2023-02-28T07:20:21;10.15;;;2.90;;
63312;SDS011;49442;45.640;13.812;2023-02-28T07:22:48;6.75;;;3.20;;
63312;SDS011;49442;45.640;13.812;2023-02-28T07:25:20;9.98;;;3.03;;
63312;SDS011;49442;45.640;13.812;2023-02-28T07:27:46;7.53;;;3.05;;
63312;SDS011;49442;45.640;13.812;2023-02-28T07:30:12;7.70;;;2.83;;
63312;SDS011;49442;45.640;13.812;2023-02-28T07:32:38;8.63;;;3.25;;
63312;SDS011;49442;45.640;13.812;2023-02-28T07:35:04;8.25;;;3.03;;
63312;SDS011;49442;45.640;13.812;2023-02-28T07:37:29;6.05;;;3.00;;
63312;SDS011;49442;45.640;13.812;2023-02-28T07:39:56;5.80;;;2.63;;
63312;SDS011;49442;45.640;13.812;2023-02-28T07:42:22;4.50;;;2.65;;
63312;SDS011;49442;45.640;13.812;2023-02-28T07:44:48;4.03;;;2.50;;
63312;SDS011;49442;45.640;13.812;2023-02-28T07:47:13;6.25;;;2.42;;
63312;SDS011;49442;45.640;13.812;2023-02-28T07:49:39;4.53;;;2.83;;
63312;SDS011;49442;45.640;13.812;2023-02-28T07:52:05;8.05;;;3.28;;
63312;SDS011;49442;45.640;13.812;2023-02-28T07:54:32;7.53;;;2.65;;
63312;SDS011;49442;45.640;13.812;2023-02-28T07:56:58;7.57;;;2.90;;
63312;SDS011;49442;45.640;13.812;2023-02-28T07:59:24;9.75;;;2.95;;
63312;SDS011;49442;45.640;13.812;2023-02-28T08:01:50;11.18;;;3.22;;
63312;SDS011;49442;45.640;13.812;2023-02-28T08:04:16;7.82;;;3.03;;
63312;SDS011;49442;45.640;13.812;2023-02-28T08:06:42;11.57;;;3.53;;
63312;SDS011;49442;45.640;13.812;2023-02-28T08:09:08;14.57;;;3.63;;
63312;SDS011;49442;45.640;13.812;2023-02-28T08:11:34;6.35;;;2.80;;
63312;SDS011;49442;45.640;13.812;2023-02-28T08:13:59;7.13;;;3.45;;
63312;SDS011;49442;45.640;13.812;2023-02-28T08:16:25;7.38;;;3.72;;
63312;SDS011;49442;45.640;13.812;2023-02-28T08:18:51;6.15;;;3.35;;
63312;SDS011;49442;45.640;13.812;2023-02-28T08:21:18;8.00;;;3.20;;
63312;SDS011;49442;45.640;13.812;2023-02-28T08:23:46;6.43;;;3.30;;
63312;SDS011;49442;45.640;13.812;2023-02-28T08:26:13;7.63;;;3.20;;
63312;SDS011;49442;45.640;13.812;2023-02-28T08:28:39;6.53;;;3.40;;
63312;SDS011;49442;45.640;13.812;2023-02-28T08:31:09;5.88;;;2.95;;
63312;SDS011;49442;45.640;13.812;2023-02-28T08:33:36;8.17;;;2.87;;
63312;SDS011;49442;45.640;13.812;2023-02-28T08:36:04;7.30;;;3.10;;
63312;SDS011;49442;45.640;13.812;2023-02-28T08:38:30;13.02;;;3.35;;
63312;SDS011;49442;45.640;13.812;2023-02-28T08:41:03;9.20;;;3.90;;
63312;SDS011;49442;45.640;13.812;2023-02-28T08:43:32;8.05;;;3.25;;
63312;SDS011;49442;45.640;13.812;2023-02-28T08:46:01;7.97;;;3.08;;
63312;SDS011;49442;45.640;13.812;2023-02-28T08:48:28;7.93;;;3.28;;
63312;SDS011;49442;45.640;13.812;2023-02-28T08:50:55;6.93;;;3.38;;
63312;SDS011;49442;45.640;13.812;2023-02-28T08:53:21;7.35;;;3.40;;
63312;SDS011;49442;45.640;13.812;2023-02-28T08:55:47;6.30;;;3.13;;
63312;SDS011;49442;45.640;13.812;2023-02-28T08:58:20;4.25;;;2.13;;
63312;SDS011;49442;45.640;13.812;2023-02-28T09:00:45;6.72;;;2.83;;
63312;SDS011;49442;45.640;13.812;2023-02-28T09:03:11;6.28;;;2.78;;
63312;SDS011;49442;45.640;13.812;2023-02-28T09:05:36;4.35;;;2.70;;
63312;SDS011;49442;45.640;13.812;2023-02-28T09:08:02;5.57;;;2.70;;
63312;SDS011;49442;45.640;13.812;2023-02-28T09:10:28;7.15;;;3.08;;
63312;SDS011;49442;45.640;13.812;2023-02-28T09:12:53;7.13;;;2.53;;
63312;SDS011;49442;45.640;13.812;2023-02-28T09:15:19;8.40;;;3.00;;
63312;SDS011;49442;45.640;13.812;2023-02-28T09:17:44;5.03;;;2.78;;
63312;SDS011;49442;45.640;13.812;2023-02-28T09:20:10;3.95;;;2.35;;
63312;SDS011;49442;45.640;13.812;2023-02-28T09:22:36;5.43;;;2.58;;
63312;SDS011;49442;45.640;13.812;2023-02-28T09:25:02;5.97;;;2.50;;
63312;SDS011;49442;45.640;13.812;2023-02-28T09:27:28;5.75;;;2.40;;
63312;SDS011;49442;45.640;13.812;2023-02-28T09:29:53;7.45;;;2.30;;
63312;SDS011;49442;45.640;13.812;2023-02-28T09:32:19;6.25;;;2.45;;
63312;SDS011;49442;45.640;13.812;2023-02-28T09:34:45;4.43;;;2.80;;
63312;SDS011;49442;45.640;13.812;2023-02-28T09:37:10;4.78;;;2.53;;
63312;SDS011;49442;45.640;13.812;2023-02-28T09:39:36;3.88;;;2.10;;
63312;SDS011;49442;45.640;13.812;2023-02-28T09:42:02;4.30;;;2.67;;
63312;SDS011;49442;45.640;13.812;2023-02-28T09:44:31;3.40;;;2.28;;
63312;SDS011;49442;45.640;13.812;2023-02-28T09:47:24;10.65;;;2.47;;
63312;SDS011;49442;45.640;13.812;2023-02-28T09:49:59;5.72;;;2.33;;
63312;SDS011;49442;45.640;13.812;2023-02-28T09:52:32;3.40;;;2.10;;
63312;SDS011;49442;45.640;13.812;2023-02-28T09:55:18;3.55;;;2.30;;
63312;SDS011;49442;45.640;13.812;2023-02-28T09:57:53;3.33;;;2.00;;
63312;SDS011;49442;45.640;13.812;2023-02-28T10:00:24;5.38;;;2.90;;
63312;SDS011;49442;45.640;13.812;2023-02-28T10:08:35;2.67;;;2.17;;
63312;SDS011;49442;45.640;13.812;2023-02-28T10:11:07;4.18;;;2.33;;
63312;SDS011;49442;45.640;13.812;2023-02-28T10:16:06;3.17;;;2.53;;
63312;SDS011;49442;45.640;13.812;2023-02-28T10:21:42;4.05;;;2.33;;
63312;SDS011;49442;45.640;13.812;2023-02-28T10:27:22;2.83;;;1.88;;
63312;SDS011;49442;45.640;13.812;2023-02-28T10:29:50;4.78;;;2.75;;
63312;SDS011;49442;45.640;13.812;2023-02-28T10:37:44;2.80;;;2.20;;
63312;SDS011;49442;45.640;13.812;2023-02-28T10:42:54;3.45;;;2.20;;
63312;SDS011;49442;45.640;13.812;2023-02-28T10:45:22;3.00;;;2.20;;
63312;SDS011;49442;45.640;13.812;2023-02-28T10:48:02;2.45;;;2.10;;
63312;SDS011;49442;45.640;13.812;2023-02-28T10:56:04;2.92;;;2.00;;
63312;SDS011;49442;45.640;13.812;2023-02-28T11:01:25;3.53;;;2.15;;
63312;SDS011;49442;45.640;13.812;2023-02-28T11:04:17;5.68;;;2.13;;
63312;SDS011;49442;45.640;13.812;2023-02-28T11:06:44;2.60;;;1.92;;
63312;SDS011;49442;45.640;13.812;2023-02-28T11:09:45;4.35;;;2.10;;
63312;SDS011;49442;45.640;13.812;2023-02-28T11:12:06;4.18;;;2.13;;
63312;SDS011;49442;45.640;13.812;2023-02-28T11:14:47;4.38;;;2.42;;
63312;SDS011;49442;45.640;13.812;2023-02-28T11:17:20;3.67;;;2.05;;
63312;SDS011;49442;45.640;13.812;2023-02-28T11:19:50;4.03;;;2.13;;
63312;SDS011;49442;45.640;13.812;2023-02-28T11:22:19;2.67;;;1.98;;
63312;SDS011;49442;45.640;13.812;2023-02-28T11:24:49;4.90;;;2.55;;
63312;SDS011;49442;45.640;13.812;2023-02-28T11:29:56;5.72;;;2.50;;
63312;SDS011;49442;45.640;13.812;2023-02-28T11:32:24;2.78;;;2.10;;
63312;SDS011;49442;45.640;13.812;2023-02-28T11:37:39;6.32;;;2.35;;
63312;SDS011;49442;45.640;13.812;2023-02-28T11:40:08;6.88;;;2.63;;
63312;SDS011;49442;45.640;13.812;2023-02-28T11:42:48;3.55;;;2.47;;
63312;SDS011;49442;45.640;13.812;2023-02-28T11:56:43;5.03;;;2.78;;
63312;SDS011;49442;45.640;13.812;2023-02-28T12:00:19;5.43;;;3.20;;
63312;SDS011;49442;45.640;13.812;2023-02-28T12:10:29;10.65;;;3.42;;
63312;SDS011;49442;45.640;13.812;2023-02-28T12:20:46;9.60;;;2.78;;
63312;SDS011;49442;45.640;13.812;2023-02-28T12:23:21;7.25;;;3.08;;
63312;SDS011;49442;45.640;13.812;2023-02-28T12:26:03;5.85;;;3.05;;
63312;SDS011;49442;45.640;13.812;2023-02-28T12:28:39;7.43;;;3.28;;
63312;SDS011;49442;45.640;13.812;2023-02-28T13:21:29;3.85;;;2.97;;
63312;SDS011;49442;45.640;13.812;2023-02-28T13:24:00;7.05;;;3.50;;
63312;SDS011;49442;45.640;13.812;2023-02-28T13:34:31;4.50;;;3.25;;
63312;SDS011;49442;45.640;13.812;2023-02-28T13:47:40;4.85;;;3.60;;
63312;SDS011;49442;45.640;13.812;2023-02-28T13:58:28;5.65;;;3.78;;
63312;SDS011;49442;45.640;13.812;2023-02-28T14:04:09;6.00;;;4.13;;
63312;SDS011;49442;45.640;13.812;2023-02-28T14:06:56;6.32;;;3.92;;
63312;SDS011;49442;45.640;13.812;2023-02-28T14:09:30;4.68;;;3.60;;
63312;SDS011;49442;45.640;13.812;2023-02-28T14:15:03;4.10;;;3.45;;
63312;SDS011;49442;45.640;13.812;2023-02-28T14:17:53;6.28;;;4.20;;
63312;SDS011;49442;45.640;13.812;2023-02-28T14:20:20;6.13;;;4.50;;
63312;SDS011;49442;45.640;13.812;2023-02-28T14:22:56;5.63;;;4.38;;
63312;SDS011;49442;45.640;13.812;2023-02-28T14:28:13;6.80;;;4.72;;
63312;SDS011;49442;45.640;13.812;2023-02-28T14:36:37;10.25;;;5.22;;
63312;SDS011;49442;45.640;13.812;2023-02-28T14:39:16;4.90;;;4.20;;
63312;SDS011;49442;45.640;13.812;2023-02-28T14:41:45;5.30;;;4.28;;
63312;SDS011;49442;45.640;13.812;2023-02-28T14:44:21;5.63;;;4.53;;
63312;SDS011;49442;45.640;13.812;2023-02-28T14:46:55;6.55;;;4.70;;
63312;SDS011;49442;45.640;13.812;2023-02-28T14:52:01;8.25;;;4.90;;
63312;SDS011;49442;45.640;13.812;2023-02-28T14:54:51;7.53;;;5.20;;
63312;SDS011;49442;45.640;13.812;2023-02-28T14:57:27;7.38;;;4.80;;
63312;SDS011;49442;45.640;13.812;2023-02-28T15:00:04;6.40;;;4.68;;
63312;SDS011;49442;45.640;13.812;2023-02-28T15:02:35;6.10;;;4.55;;
63312;SDS011;49442;45.640;13.812;2023-02-28T15:07:37;5.45;;;4.30;;
63312;SDS011;49442;45.640;13.812;2023-02-28T15:12:35;5.95;;;4.68;;
63312;SDS011;49442;45.640;13.812;2023-02-28T15:15:02;7.20;;;5.13;;
63312;SDS011;49442;45.640;13.812;2023-02-28T15:17:28;10.48;;;4.70;;
63312;SDS011;49442;45.640;13.812;2023-02-28T15:19:54;8.30;;;4.60;;
63312;SDS011;49442;45.640;13.812;2023-02-28T15:22:23;8.15;;;5.03;;
63312;SDS011;49442;45.640;13.812;2023-02-28T15:24:54;6.25;;;4.60;;
63312;SDS011;49442;45.640;13.812;2023-02-28T15:27:26;9.75;;;4.80;;
63312;SDS011;49442;45.640;13.812;2023-02-28T15:29:55;7.95;;;4.63;;
63312;SDS011;49442;45.640;13.812;2023-02-28T15:32:31;8.82;;;5.38;;
63312;SDS011;49442;45.640;13.812;2023-02-28T15:34:58;10.52;;;5.88;;
63312;SDS011;49442;45.640;13.812;2023-02-28T15:37:46;10.18;;;6.65;;
63312;SDS011;49442;45.640;13.812;2023-02-28T15:43:28;11.05;;;6.28;;
63312;SDS011;49442;45.640;13.812;2023-02-28T15:46:04;9.43;;;6.25;;
63312;SDS011;49442;45.640;13.812;2023-02-28T15:48:36;7.90;;;5.60;;
63312;SDS011;49442;45.640;13.812;2023-02-28T15:51:08;10.02;;;6.65;;
63312;SDS011;49442;45.640;13.812;2023-02-28T15:58:47;8.00;;;5.80;;
63312;SDS011;49442;45.640;13.812;2023-02-28T16:01:47;8.60;;;5.88;;
63312;SDS011;49442;45.640;13.812;2023-02-28T16:04:15;7.70;;;5.78;;
63312;SDS011;49442;45.640;13.812;2023-02-28T16:07:25;10.35;;;6.05;;
63312;SDS011;49442;45.640;13.812;2023-02-28T16:09:37;9.10;;;5.85;;
63312;SDS011;49442;45.640;13.812;2023-02-28T16:12:03;8.57;;;6.40;;
63312;SDS011;49442;45.640;13.812;2023-02-28T16:14:30;7.28;;;5.80;;
63312;SDS011;49442;45.640;13.812;2023-02-28T16:16:57;9.68;;;5.78;;
63312;SDS011;49442;45.640;13.812;2023-02-28T16:19:33;10.30;;;5.35;;
63312;SDS011;49442;45.640;13.812;2023-02-28T16:21:59;11.23;;;6.22;;
63312;SDS011;49442;45.640;13.812;2023-02-28T16:24:26;10.13;;;5.70;;
63312;SDS011;49442;45.640;13.812;2023-02-28T16:26:52;8.20;;;6.03;;
63312;SDS011;49442;45.640;13.812;2023-02-28T16:29:29;12.65;;;7.28;;
63312;SDS011;49442;45.640;13.812;2023-02-28T16:31:59;8.23;;;5.70;;
63312;SDS011;49442;45.640;13.812;2023-02-28T16:34:25;7.85;;;6.00;;
63312;SDS011;49442;45.640;13.812;2023-02-28T16:36:51;7.22;;;5.32;;
63312;SDS011;49442;45.640;13.812;2023-02-28T16:39:17;7.47;;;5.80;;
63312;SDS011;49442;45.640;13.812;2023-02-28T16:41:45;8.38;;;6.05;;
63312;SDS011;49442;45.640;13.812;2023-02-28T16:44:14;7.50;;;5.80;;
63312;SDS011;49442;45.640;13.812;2023-02-28T16:46:51;8.82;;;6.22;;
63312;SDS011;49442;45.640;13.812;2023-02-28T16:49:17;8.50;;;6.20;;
63312;SDS011;49442;45.640;13.812;2023-02-28T16:51:43;10.30;;;5.90;;
63312;SDS011;49442;45.640;13.812;2023-02-28T16:54:08;8.95;;;6.28;;
63312;SDS011;49442;45.640;13.812;2023-02-28T16:56:34;12.20;;;6.88;;
63312;SDS011;49442;45.640;13.812;2023-02-28T16:59:00;7.30;;;5.50;;
63312;SDS011;49442;45.640;13.812;2023-02-28T17:01:27;8.40;;;5.95;;
63312;SDS011;49442;45.640;13.812;2023-02-28T17:03:53;9.27;;;5.60;;
63312;SDS011;49442;45.640;13.812;2023-02-28T17:06:23;13.95;;;6.38;;
63312;SDS011;49442;45.640;13.812;2023-02-28T17:08:52;9.20;;;6.55;;
63312;SDS011;49442;45.640;13.812;2023-02-28T17:11:19;8.65;;;5.93;;
63312;SDS011;49442;45.640;13.812;2023-02-28T17:13:45;9.45;;;6.35;;
63312;SDS011;49442;45.640;13.812;2023-02-28T17:16:15;10.75;;;6.65;;
63312;SDS011;49442;45.640;13.812;2023-02-28T17:18:47;11.23;;;6.78;;
63312;SDS011;49442;45.640;13.812;2023-02-28T17:21:13;13.00;;;7.03;;
63312;SDS011;49442;45.640;13.812;2023-02-28T17:23:40;9.48;;;6.97;;
63312;SDS011;49442;45.640;13.812;2023-02-28T17:26:06;12.32;;;6.10;;
63312;SDS011;49442;45.640;13.812;2023-02-28T17:28:32;8.25;;;5.97;;
63312;SDS011;49442;45.640;13.812;2023-02-28T17:30:57;9.02;;;6.20;;
63312;SDS011;49442;45.640;13.812;2023-02-28T17:33:23;9.68;;;7.00;;
63312;SDS011;49442;45.640;13.812;2023-02-28T17:35:49;11.68;;;7.00;;
63312;SDS011;49442;45.640;13.812;2023-02-28T17:38:16;10.02;;;6.75;;
63312;SDS011;49442;45.640;13.812;2023-02-28T17:40:43;13.50;;;6.43;;
63312;SDS011;49442;45.640;13.812;2023-02-28T17:43:09;9.75;;;6.43;;
63312;SDS011;49442;45.640;13.812;2023-02-28T17:45:35;8.70;;;6.57;;
63312;SDS011;49442;45.640;13.812;2023-02-28T17:48:01;12.23;;;6.45;;
63312;SDS011;49442;45.640;13.812;2023-02-28T17:50:27;8.45;;;6.55;;
63312;SDS011;49442;45.640;13.812;2023-02-28T17:52:53;7.55;;;6.18;;
63312;SDS011;49442;45.640;13.812;2023-02-28T17:55:18;11.32;;;5.93;;
63312;SDS011;49442;45.640;13.812;2023-02-28T17:57:44;8.55;;;6.43;;
63312;SDS011;49442;45.640;13.812;2023-02-28T18:00:11;9.88;;;6.35;;
63312;SDS011;49442;45.640;13.812;2023-02-28T18:02:38;8.50;;;6.28;;
63312;SDS011;49442;45.640;13.812;2023-02-28T18:05:04;7.35;;;6.13;;
63312;SDS011;49442;45.640;13.812;2023-02-28T18:07:30;8.82;;;6.10;;
63312;SDS011;49442;45.640;13.812;2023-02-28T18:09:56;9.02;;;6.40;;
63312;SDS011;49442;45.640;13.812;2023-02-28T18:12:22;8.27;;;5.95;;
63312;SDS011;49442;45.640;13.812;2023-02-28T18:14:47;9.52;;;6.35;;
63312;SDS011;49442;45.640;13.812;2023-02-28T18:17:13;7.68;;;6.30;;
63312;SDS011;49442;45.640;13.812;2023-02-28T18:19:39;7.72;;;6.30;;
63312;SDS011;49442;45.640;13.812;2023-02-28T18:22:04;13.63;;;5.90;;
63312;SDS011;49442;45.640;13.812;2023-02-28T18:24:33;7.63;;;6.20;;
63312;SDS011;49442;45.640;13.812;2023-02-28T18:27:00;7.78;;;6.55;;
63312;SDS011;49442;45.640;13.812;2023-02-28T18:29:26;9.23;;;6.05;;
63312;SDS011;49442;45.640;13.812;2023-02-28T18:31:53;7.00;;;6.00;;
63312;SDS011;49442;45.640;13.812;2023-02-28T18:34:19;7.85;;;6.20;;
63312;SDS011;49442;45.640;13.812;2023-02-28T18:36:46;8.60;;;5.20;;
63312;SDS011;49442;45.640;13.812;2023-02-28T18:39:13;8.95;;;6.53;;
63312;SDS011;49442;45.640;13.812;2023-02-28T18:41:39;6.80;;;6.10;;
63312;SDS011;49442;45.640;13.812;2023-02-28T18:44:05;6.68;;;5.97;;
63312;SDS011;49442;45.640;13.812;2023-02-28T18:46:31;8.15;;;5.82;;
63312;SDS011;49442;45.640;13.812;2023-02-28T18:48:57;7.78;;;5.85;;
63312;SDS011;49442;45.640;13.812;2023-02-28T18:51:24;7.25;;;5.68;;
63312;SDS011;49442;45.640;13.812;2023-02-28T18:53:51;6.90;;;5.68;;